Time;durP1;ratioP1;P1;durP2;ratioP2;P2;SDS_P1;SDS_P2;PMS_P1;PMS_P2;Temp;Humidity;BMP_temperature;BMP_pressure;BME280_temperature;BME280_humidity;BME280_pressure;Samples;Min_cycle;Max_cycle;Signal;HPM_P1;HPM_P2
2022/04/27 00:00:51;;;;;;;14.95;7.80;;;7.30;99.90;;;;;;5081926;28;20042;-84
2022/04/27 00:03:17;;;;;;;11.63;7.38;;;7.60;99.90;;;;;;5087401;28;20082;-83
2022/04/27 00:05:43;;;;;;;12.82;7.70;;;7.00;99.90;;;;;;5065178;28;20055;-85
2022/04/27 00:08:09;;;;;;;14.32;7.60;;;7.40;99.90;;;;;;5082006;28;20044;-84
2022/04/27 00:10:34;;;;;;;12.18;7.03;;;7.40;99.90;;;;;;5065376;28;20044;-85
2022/04/27 00:13:00;;;;;;;12.00;7.68;;;7.60;99.90;;;;;;5083496;28;20048;-84
2022/04/27 00:15:27;;;;;;;12.35;7.22;;;6.60;99.90;;;;;;5082361;28;20044;-84
2022/04/27 00:17:53;;;;;;;11.93;7.20;;;7.00;99.90;;;;;;5101305;28;20055;-84
2022/04/27 00:20:19;;;;;;;12.85;7.60;;;7.00;99.90;;;;;;5067930;28;20052;-83
2022/04/27 00:22:44;;;;;;;10.32;7.25;;;7.00;99.90;;;;;;5100764;28;20044;-84
2022/04/27 00:25:10;;;;;;;11.80;7.57;;;7.10;99.90;;;;;;5100767;28;20040;-84
2022/04/27 00:27:36;;;;;;;10.77;6.85;;;7.00;99.90;;;;;;5082552;28;20106;-84
2022/04/27 00:30:02;;;;;;;12.68;7.18;;;7.20;99.90;;;;;;5100484;28;20055;-84
2022/04/27 00:32:28;;;;;;;11.13;6.55;;;7.10;99.90;;;;;;5081433;28;20042;-84
2022/04/27 00:34:54;;;;;;;10.93;6.65;;;7.10;99.90;;;;;;5081918;28;20044;-84
2022/04/27 00:37:19;;;;;;;12.05;6.68;;;7.40;99.90;;;;;;5084493;28;20410;-84
2022/04/27 00:39:45;;;;;;;12.48;7.30;;;7.10;99.90;;;;;;5104589;28;20044;-83
2022/04/27 00:42:16;;;;;;;9.52;6.40;;;7.10;99.90;;;;;;5104647;28;20027;-83
2022/04/27 00:44:43;;;;;;;9.82;6.78;;;7.00;99.90;;;;;;5085400;28;20048;-84
2022/04/27 00:47:13;;;;;;;11.30;6.90;;;7.10;99.90;;;;;;5067347;28;20052;-84
2022/04/27 00:49:48;;;;;;;11.82;7.28;;;7.10;99.90;;;;;;5066837;28;20066;-83
2022/04/27 00:52:15;;;;;;;11.57;6.65;;;7.10;99.90;;;;;;5102125;28;20079;-84
2022/04/27 00:54:43;;;;;;;13.40;7.07;;;7.20;99.90;;;;;;5102519;28;20044;-85
2022/04/27 00:57:10;;;;;;;8.95;5.90;;;7.20;99.90;;;;;;5084910;28;20100;-84
2022/04/27 00:59:36;;;;;;;10.52;6.45;;;7.40;99.90;;;;;;5104270;28;20036;-84
2022/04/27 01:02:04;;;;;;;9.48;5.95;;;7.10;99.90;;;;;;5086450;28;20040;-84
2022/04/27 01:04:32;;;;;;;11.38;5.82;;;7.20;99.90;;;;;;5088128;28;20048;-85
2022/04/27 01:06:58;;;;;;;9.55;5.38;;;7.70;99.90;;;;;;5104111;28;20040;-84
2022/04/27 01:09:25;;;;;;;10.40;5.10;;;7.20;99.90;;;;;;5104212;28;20046;-84
2022/04/27 01:11:51;;;;;;;10.13;5.68;;;7.20;99.90;;;;;;5121853;28;20050;-84
2022/04/27 01:14:17;;;;;;;12.15;5.50;;;7.20;99.90;;;;;;5106642;28;20048;-83
2022/04/27 01:16:49;;;;;;;10.52;5.47;;;7.20;99.90;;;;;;5088940;28;20050;-84
2022/04/27 01:19:14;;;;;;;13.02;5.70;;;7.80;99.90;;;;;;5088783;28;20087;-85
2022/04/27 01:21:41;;;;;;;9.48;5.32;;;7.30;99.90;;;;;;5123692;28;20095;-83
2022/04/27 01:24:07;;;;;;;11.10;5.35;;;7.30;99.90;;;;;;5105861;28;20040;-83
2022/04/27 01:26:33;;;;;;;9.63;5.43;;;7.90;99.90;;;;;;5087207;28;20055;-84
2022/04/27 01:28:59;;;;;;;11.98;5.93;;;7.40;99.90;;;;;;5086180;28;20036;-84
2022/04/27 01:31:24;;;;;;;12.30;6.28;;;7.40;99.90;;;;;;5085877;28;20047;-85
2022/04/27 01:33:50;;;;;;;10.75;6.63;;;7.30;99.90;;;;;;5103533;28;20131;-83
2022/04/27 01:36:16;;;;;;;11.50;6.18;;;7.30;99.90;;;;;;5086335;28;20044;-85
2022/04/27 01:38:43;;;;;;;11.02;6.10;;;7.30;99.90;;;;;;5103571;28;20039;-84
2022/04/27 01:41:09;;;;;;;12.15;6.20;;;7.90;99.90;;;;;;5103009;28;20039;-84
2022/04/27 01:43:36;;;;;;;9.60;5.28;;;7.90;99.90;;;;;;5127652;22;20058;-83
2022/04/27 01:46:03;;;;;;;10.93;5.35;;;7.30;99.90;;;;;;5094066;22;20053;-84
2022/04/27 01:48:29;;;;;;;5.85;4.07;;;7.40;99.90;;;;;;5060370;28;20053;-84
2022/04/27 01:50:55;;;;;;;9.90;4.72;;;7.90;99.90;;;;;;5043960;28;20148;-84
2022/04/27 01:56:06;;;;;;;8.05;4.18;;;7.40;99.90;;;;;;5123861;22;20051;-84
2022/04/27 01:58:32;;;;;;;9.88;4.65;;;8.10;99.90;;;;;;5104506;28;20486;-84
2022/04/27 02:00:58;;;;;;;11.60;4.30;;;7.70;99.90;;;;;;5121182;28;20031;-84
2022/04/27 02:03:24;;;;;;;7.35;4.22;;;7.90;99.90;;;;;;5102970;28;20436;-83
2022/04/27 02:05:56;;;;;;;6.22;4.32;;;8.20;99.90;;;;;;5119962;28;20039;-84
2022/04/27 02:08:22;;;;;;;10.43;4.40;;;7.70;99.90;;;;;;5102626;28;20095;-84
2022/04/27 02:10:47;;;;;;;9.38;4.00;;;7.60;99.90;;;;;;5103193;28;20478;-84
2022/04/27 02:13:13;;;;;;;7.88;3.80;;;7.70;99.90;;;;;;5125576;22;20395;-84
2022/04/27 02:15:39;;;;;;;5.93;3.83;;;7.60;99.90;;;;;;5064944;28;20051;-83
2022/04/27 02:18:06;;;;;;;7.88;3.80;;;7.70;99.90;;;;;;5066374;28;20134;-84
2022/04/27 02:20:32;;;;;;;7.07;3.40;;;7.60;99.90;;;;;;5070312;23;20131;-84
2022/04/27 02:22:58;;;;;;;7.15;3.08;;;7.60;99.90;;;;;;5079833;28;20091;-83
2022/04/27 02:25:24;;;;;;;7.40;3.47;;;7.60;99.90;;;;;;5062092;28;20047;-84
2022/04/27 02:27:50;;;;;;;7.88;3.65;;;8.30;99.90;;;;;;5079852;28;20403;-84
2022/04/27 02:30:16;;;;;;;7.10;3.55;;;8.50;99.90;;;;;;5060424;28;20043;-85
2022/04/27 02:32:42;;;;;;;7.20;3.72;;;7.80;99.90;;;;;;5077773;28;20037;-84
2022/04/27 02:35:09;;;;;;;7.65;3.30;;;8.20;99.90;;;;;;5062244;28;20074;-84
2022/04/27 02:37:36;;;;;;;9.23;3.25;;;7.70;99.90;;;;;;5081058;28;20067;-84
2022/04/27 02:40:02;;;;;;;4.85;2.60;;;7.90;99.90;;;;;;5063671;28;20040;-84
2022/04/27 02:42:28;;;;;;;6.15;2.83;;;7.60;99.90;;;;;;5080161;28;20049;-85
2022/04/27 02:44:55;;;;;;;7.88;2.70;;;7.60;99.90;;;;;;5080401;28;20441;-84
2022/04/27 02:47:21;;;;;;;4.57;2.42;;;7.60;99.90;;;;;;5063396;28;20032;-84
2022/04/27 02:52:31;;;;;;;6.07;2.67;;;8.10;99.90;;;;;;5079658;28;20549;-84
2022/04/27 02:54:57;;;;;;;8.88;2.60;;;7.50;99.90;;;;;;5078933;28;20041;-84
2022/04/27 02:57:23;;;;;;;3.15;2.20;;;8.20;99.90;;;;;;5091099;22;20069;-85
2022/04/27 02:59:48;;;;;;;3.55;2.20;;;7.50;99.90;;;;;;5113915;28;20048;-85
2022/04/27 03:02:14;;;;;;;6.38;2.20;;;7.50;99.90;;;;;;5096697;28;20050;-85
2022/04/27 03:04:40;;;;;;;6.90;2.28;;;7.50;99.90;;;;;;5113536;28;20039;-85
2022/04/27 03:07:06;;;;;;;5.93;2.58;;;8.20;99.90;;;;;;5096983;28;20062;-85
2022/04/27 03:09:32;;;;;;;4.70;2.20;;;8.00;99.90;;;;;;5097149;28;20039;-85
2022/04/27 03:11:58;;;;;;;5.03;2.47;;;8.00;99.90;;;;;;5114294;28;20047;-85
2022/04/27 03:14:24;;;;;;;4.57;2.50;;;7.50;99.90;;;;;;5097160;28;20067;-85
2022/04/27 03:16:51;;;;;;;5.03;2.20;;;7.90;99.90;;;;;;5074967;22;20496;-86
2022/04/27 03:19:16;;;;;;;4.72;2.33;;;7.50;99.90;;;;;;5066622;23;20051;-85
2022/04/27 03:21:42;;;;;;;5.20;2.03;;;7.90;99.90;;;;;;5076416;28;20052;-85
2022/04/27 03:24:08;;;;;;;4.50;2.70;;;7.50;99.90;;;;;;5093522;28;20054;-85
2022/04/27 03:26:34;;;;;;;6.00;2.25;;;8.20;99.90;;;;;;5076517;28;20071;-85
2022/04/27 03:28:59;;;;;;;3.92;2.28;;;7.90;99.90;;;;;;5101056;22;20058;-85
2022/04/27 03:31:26;;;;;;;5.20;2.35;;;7.70;99.90;;;;;;5052589;23;20407;-85
2022/04/27 03:33:52;;;;;;;4.28;1.80;;;7.60;99.90;;;;;;5067506;23;20057;-85
2022/04/27 03:36:18;;;;;;;4.63;2.10;;;7.40;99.90;;;;;;5068413;22;20140;-85
2022/04/27 03:38:43;;;;;;;3.75;1.63;;;7.40;99.90;;;;;;5056080;28;20056;-85
2022/04/27 03:41:10;;;;;;;5.57;1.90;;;7.80;99.90;;;;;;5066138;22;20044;-86
2022/04/27 03:43:36;;;;;;;4.45;1.80;;;7.50;99.90;;;;;;5060209;28;20047;-85
2022/04/27 03:46:02;;;;;;;3.70;1.73;;;7.80;99.90;;;;;;5059312;28;20051;-85
2022/04/27 03:48:27;;;;;;;3.08;2.00;;;7.40;99.90;;;;;;5075927;28;20048;-85
2022/04/27 03:50:53;;;;;;;3.72;1.88;;;8.00;99.90;;;;;;5059728;28;20040;-85
2022/04/27 03:53:18;;;;;;;3.15;2.22;;;7.50;99.90;;;;;;5059973;28;20509;-85
2022/04/27 03:55:44;;;;;;;3.95;1.88;;;7.40;99.90;;;;;;5059442;28;20044;-85
2022/04/27 03:58:10;;;;;;;4.95;1.85;;;7.60;99.90;;;;;;5106158;22;20051;-85
2022/04/27 04:00:36;;;;;;;4.65;2.00;;;7.40;99.90;;;;;;5059497;28;20063;-85
2022/04/27 04:03:03;;;;;;;3.40;1.88;;;7.90;99.90;;;;;;5075686;28;20487;-85
2022/04/27 04:05:29;;;;;;;2.88;1.50;;;7.50;99.90;;;;;;5062127;28;20075;-84
2022/04/27 04:07:58;;;;;;;3.50;1.70;;;8.10;99.90;;;;;;5068121;22;20060;31
2022/04/27 04:10:24;;;;;;;3.92;1.73;;;7.50;99.90;;;;;;5017970;28;20068;-85
2022/04/27 04:12:50;;;;;;;4.95;1.88;;;7.50;99.90;;;;;;5035875;28;20492;-84
2022/04/27 04:15:16;;;;;;;3.30;1.88;;;7.50;99.90;;;;;;5064635;23;20100;-85
2022/04/27 04:17:45;;;;;;;2.80;1.80;;;7.50;99.90;;;;;;5086641;22;20047;-85
2022/04/27 04:20:17;;;;;;;4.28;2.40;;;7.50;99.90;;;;;;5090837;28;20031;-85
2022/04/27 04:22:44;;;;;;;4.85;2.42;;;7.60;99.90;;;;;;5121292;28;20051;-84
2022/04/27 04:30:39;;;;;;;3.70;1.90;;;7.80;99.90;;;;;;5102236;22;20059;-85
2022/04/27 04:33:05;;;;;;;3.28;1.80;;;7.60;99.90;;;;;;5076920;28;20040;-85
2022/04/27 04:35:30;;;;;;;7.03;2.15;;;8.20;99.90;;;;;;5079571;28;20351;-85
2022/04/27 04:37:56;;;;;;;4.95;2.20;;;7.60;99.90;;;;;;5079838;28;20040;-85
2022/04/27 04:40:22;;;;;;;6.22;2.20;;;8.10;99.90;;;;;;5115474;28;20047;-85
2022/04/27 04:42:48;;;;;;;4.70;1.70;;;7.90;99.90;;;;;;5109313;22;20142;-83
2022/04/27 04:45:14;;;;;;;4.40;2.20;;;7.60;99.90;;;;;;5084151;28;20402;-85
2022/04/27 04:47:42;;;;;;;5.05;2.00;;;7.30;99.90;;;;;;5080625;28;20123;-85
2022/04/27 04:50:08;;;;;;;4.47;2.15;;;8.10;99.90;;;;;;5080943;28;20452;-85
2022/04/27 04:52:35;;;;;;;4.53;2.13;;;7.60;99.90;;;;;;5091878;22;20066;-86
2022/04/27 04:55:00;;;;;;;4.38;2.30;;;7.50;99.90;;;;;;5082996;28;20062;-86
2022/04/27 04:57:26;;;;;;;5.07;2.05;;;8.40;99.90;;;;;;5066799;28;20040;-86
2022/04/27 04:59:52;;;;;;;5.15;2.28;;;8.20;99.90;;;;;;5082947;28;20047;-85
2022/04/27 05:02:18;;;;;;;4.53;2.10;;;7.70;99.90;;;;;;5086640;22;20044;-85
2022/04/27 05:04:44;;;;;;;5.72;2.10;;;8.30;99.90;;;;;;5062873;28;20044;-85
2022/04/27 05:07:09;;;;;;;3.47;1.80;;;7.90;99.90;;;;;;5061999;28;20048;-85
2022/04/27 05:09:35;;;;;;;4.50;1.80;;;8.50;99.90;;;;;;5078786;28;20437;-85
2022/04/27 05:12:01;;;;;;;4.22;2.22;;;8.50;99.90;;;;;;5079208;28;20044;-85
2022/04/27 05:14:26;;;;;;;4.25;2.10;;;8.50;99.90;;;;;;5078601;28;20117;-85
2022/04/27 05:16:52;;;;;;;3.95;2.00;;;8.10;99.90;;;;;;5078958;28;20372;-85
2022/04/27 05:19:18;;;;;;;4.22;2.20;;;8.10;99.90;;;;;;5062399;28;20050;-85
2022/04/27 05:21:44;;;;;;;4.35;1.95;;;8.30;99.90;;;;;;5045047;28;20372;-85
2022/04/27 05:24:11;;;;;;;5.05;2.05;;;8.40;99.90;;;;;;5061747;28;20044;-85
2022/04/27 05:26:37;;;;;;;4.60;2.30;;;7.90;99.90;;;;;;5061521;28;20048;-85
2022/04/27 05:31:56;;;;;;;5.15;2.20;;;8.30;99.90;;;;;;5078796;28;20044;-85
2022/04/27 05:34:22;;;;;;;5.18;2.35;;;7.90;99.90;;;;;;5062335;28;20052;-85
2022/04/27 05:36:48;;;;;;;3.83;2.03;;;7.90;99.90;;;;;;5077889;28;20040;-85
2022/04/27 05:39:14;;;;;;;3.60;2.30;;;8.50;99.90;;;;;;5061414;28;20094;-85
2022/04/27 05:41:41;;;;;;;4.88;2.40;;;8.50;99.90;;;;;;5061869;28;20048;-85
2022/04/27 05:44:09;;;;;;;6.28;2.80;;;8.60;99.90;;;;;;5078430;28;20052;-85
2022/04/27 05:46:44;;;;;;;5.25;2.65;;;8.00;99.90;;;;;;5061304;28;20040;-85
2022/04/27 05:49:11;;;;;;;6.53;2.53;;;8.20;99.90;;;;;;5061516;28;20044;-85
2022/04/27 05:51:36;;;;;;;5.15;2.40;;;8.10;99.90;;;;;;5061344;28;20051;-85
2022/04/27 05:54:02;;;;;;;3.90;2.40;;;8.10;99.90;;;;;;5061132;28;20040;-86
2022/04/27 05:56:28;;;;;;;3.72;2.50;;;8.10;99.90;;;;;;5061066;28;20040;-85
2022/04/27 05:58:54;;;;;;;5.53;2.80;;;8.20;99.90;;;;;;5078180;28;20048;-86
2022/04/27 06:01:20;;;;;;;4.15;2.33;;;8.50;99.90;;;;;;5060950;28;20039;-86
2022/04/27 06:03:45;;;;;;;6.68;2.22;;;8.20;99.90;;;;;;5077698;28;20117;-85
2022/04/27 06:06:15;;;;;;;5.60;2.60;;;8.40;99.90;;;;;;5061861;28;20054;-84
2022/04/27 06:08:41;;;;;;;6.53;2.45;;;8.20;99.90;;;;;;5077776;28;20073;-85
2022/04/27 06:11:07;;;;;;;7.22;2.72;;;8.30;99.90;;;;;;5044450;28;20132;-85
2022/04/27 06:13:33;;;;;;;6.82;2.85;;;8.60;99.90;;;;;;5095687;28;20043;-86
2022/04/27 06:15:58;;;;;;;5.63;2.65;;;8.80;99.90;;;;;;5077993;28;20048;-85
2022/04/27 06:18:24;;;;;;;6.50;2.50;;;8.40;99.90;;;;;;5060683;28;20047;-85
2022/04/27 06:20:52;;;;;;;5.10;2.53;;;8.60;99.90;;;;;;5061047;28;20044;-86
2022/04/27 06:23:18;;;;;;;5.22;2.65;;;9.00;99.90;;;;;;5060823;28;20043;-85
2022/04/27 06:25:47;;;;;;;4.30;2.40;;;8.90;99.90;;;;;;5077378;28;20113;-86
2022/04/27 06:28:13;;;;;;;5.00;2.50;;;8.70;99.90;;;;;;5077031;28;20052;-85
2022/04/27 06:30:39;;;;;;;8.15;2.75;;;8.90;99.90;;;;;;5061418;28;20068;-85
2022/04/27 06:33:05;;;;;;;5.07;2.72;;;8.80;99.90;;;;;;5095494;28;20028;-85
2022/04/27 06:35:31;;;;;;;5.38;2.60;;;8.70;99.90;;;;;;5077116;28;20517;-85
2022/04/27 06:37:56;;;;;;;4.90;3.20;;;8.70;99.90;;;;;;5077296;28;20085;-85
2022/04/27 06:40:22;;;;;;;6.47;2.60;;;9.20;99.90;;;;;;5077378;28;20504;-86
2022/04/27 06:42:48;;;;;;;5.57;2.78;;;9.30;99.90;;;;;;5094771;28;20121;-85
2022/04/27 06:45:14;;;;;;;6.68;3.17;;;8.90;99.90;;;;;;5094896;28;20122;-85
2022/04/27 06:47:39;;;;;;;5.68;2.75;;;8.90;99.90;;;;;;5060757;28;20040;-85
2022/04/27 06:50:06;;;;;;;6.13;3.05;;;9.20;99.90;;;;;;5095381;28;20040;-85
2022/04/27 06:52:40;;;;;;;6.07;3.05;;;9.00;99.90;;;;;;5077700;28;20052;-85
2022/04/27 06:55:07;;;;;;;5.95;3.10;;;9.00;99.90;;;;;;5060674;28;20417;-85
2022/04/27 06:57:34;;;;;;;6.18;3.10;;;9.10;99.90;;;;;;5077612;28;20044;-85
2022/04/27 07:00:00;;;;;;;5.03;2.80;;;9.10;99.90;;;;;;5060263;28;20426;-85
2022/04/27 07:02:27;;;;;;;4.60;2.90;;;9.20;99.90;;;;;;5094562;28;20040;-85
2022/04/27 07:04:59;;;;;;;7.13;2.90;;;9.30;99.90;;;;;;5060059;28;20048;-85
2022/04/27 07:07:27;;;;;;;10.10;3.38;;;9.80;99.90;;;;;;5094448;28;20040;-85
2022/04/27 07:09:53;;;;;;;7.13;3.47;;;9.50;99.90;;;;;;5076455;28;20047;-85
2022/04/27 07:12:20;;;;;;;8.38;2.90;;;9.50;99.90;;;;;;5094177;28;20044;-85
2022/04/27 07:14:46;;;;;;;8.75;3.20;;;9.50;99.90;;;;;;5076039;28;20040;-84
2022/04/27 07:17:12;;;;;;;7.28;3.25;;;9.60;99.90;;;;;;5102905;22;20050;-85
2022/04/27 07:19:38;;;;;;;6.93;2.80;;;9.60;99.90;;;;;;5096329;22;20138;-85
2022/04/27 07:22:05;;;;;;;6.32;3.30;;;10.00;99.90;;;;;;5076564;28;20090;-86
2022/04/27 07:24:32;;;;;;;9.63;3.42;;;9.80;99.90;;;;;;5103710;22;20047;-86
2022/04/27 07:26:58;;;;;;;10.20;3.85;;;9.70;99.90;;;;;;5118057;22;20066;-84
2022/04/27 07:29:24;;;;;;;7.75;4.13;;;9.90;99.90;;;;;;5111407;22;20039;-86
2022/04/27 07:31:50;;;;;;;8.05;3.10;;;10.00;99.90;;;;;;5118195;22;20040;-85
2022/04/27 07:34:16;;;;;;;9.00;3.50;;;9.80;99.90;;;;;;5095826;22;20040;-85
2022/04/27 07:36:42;;;;;;;6.85;3.30;;;9.80;99.90;;;;;;5061331;23;20056;-85
2022/04/27 07:39:08;;;;;;;8.23;3.30;;;9.80;99.90;;;;;;5105746;22;20471;-86
2022/04/27 07:41:35;;;;;;;8.40;2.97;;;9.70;99.90;;;;;;5072218;22;20051;-85
2022/04/27 07:46:31;;;;;;;9.90;3.67;;;9.70;99.90;;;;;;5093742;22;20055;-85
2022/04/27 07:48:57;;;;;;;11.55;3.78;;;10.10;99.90;;;;;;5066437;22;20099;-84
2022/04/27 07:51:22;;;;;;;9.18;3.30;;;9.70;99.90;;;;;;5038724;28;20051;-85
2022/04/27 07:53:48;;;;;;;13.05;3.58;;;9.60;99.90;;;;;;5063305;22;20047;-86
2022/04/27 07:56:14;;;;;;;10.20;3.50;;;9.70;99.90;;;;;;5087349;22;20047;-85
2022/04/27 07:58:40;;;;;;;9.07;3.40;;;9.70;99.90;;;;;;5080859;22;20178;-85
2022/04/27 08:01:06;;;;;;;10.27;3.22;;;9.70;99.90;;;;;;5089661;22;20111;-86
2022/04/27 08:03:32;;;;;;;13.88;3.30;;;9.80;99.90;;;;;;5115025;22;20048;-85
2022/04/27 08:06:03;;;;;;;8.82;2.90;;;9.80;99.90;;;;;;5106911;22;20055;-84
2022/04/27 08:08:29;;;;;;;15.55;3.00;;;9.60;99.90;;;;;;5072495;28;20048;-85
2022/04/27 08:10:55;;;;;;;9.40;2.75;;;9.70;99.90;;;;;;5065326;28;20036;-85
2022/04/27 08:13:21;;;;;;;13.55;2.80;;;10.10;99.90;;;;;;5078151;22;20422;-84
2022/04/27 08:15:47;;;;;;;10.90;2.90;;;9.70;99.90;;;;;;5078431;28;20052;-85
2022/04/27 08:18:12;;;;;;;10.35;2.70;;;9.80;99.90;;;;;;5116009;22;20060;-85
2022/04/27 08:23:28;;;;;;;11.63;2.90;;;9.80;99.90;;;;;;5089821;22;20044;-83
2022/04/27 08:25:54;;;;;;;8.77;2.97;;;9.80;99.90;;;;;;5127789;22;20104;-84
2022/04/27 08:28:20;;;;;;;12.38;3.15;;;9.90;99.90;;;;;;5087285;22;20048;-85
2022/04/27 08:30:47;;;;;;;9.48;2.88;;;9.90;99.90;;;;;;5075648;22;20044;-85
2022/04/27 08:33:14;;;;;;;9.05;2.83;;;10.00;99.90;;;;;;5079781;28;20040;-85
2022/04/27 08:35:40;;;;;;;11.30;2.78;;;10.10;99.90;;;;;;5099418;28;20425;-85
2022/04/27 08:38:07;;;;;;;10.02;2.72;;;10.20;99.90;;;;;;5101768;22;20052;-84
2022/04/27 08:40:42;;;;;;;10.52;2.47;;;10.20;99.90;;;;;;5060723;28;20064;-85
2022/04/27 08:43:11;;;;;;;8.52;2.63;;;10.30;99.90;;;;;;5099239;22;20043;-85
2022/04/27 08:45:41;;;;;;;8.93;2.40;;;10.30;99.90;;;;;;5087753;22;20039;-85
2022/04/27 08:48:08;;;;;;;6.22;2.80;;;10.40;99.90;;;;;;5090275;22;20047;-85
2022/04/27 08:50:34;;;;;;;9.40;2.58;;;10.50;99.90;;;;;;5082681;28;20096;-85
2022/04/27 08:53:00;;;;;;;9.00;3.10;;;10.70;99.90;;;;;;5066261;28;20036;-85
2022/04/27 08:55:29;;;;;;;8.05;2.50;;;10.80;99.90;;;;;;5083740;28;20142;-85
2022/04/27 08:58:11;;;;;;;10.05;2.50;;;10.90;99.90;;;;;;5083457;28;20131;-85
2022/04/27 09:00:37;;;;;;;11.15;3.05;;;10.80;99.90;;;;;;5083794;28;20046;-85
2022/04/27 09:03:25;;;;;;;9.68;2.63;;;10.80;99.90;;;;;;5118861;28;20073;-85
2022/04/27 09:06:02;;;;;;;8.93;2.58;;;11.00;99.90;;;;;;5084002;28;20043;-85
2022/04/27 09:08:47;;;;;;;9.23;2.45;;;11.00;99.90;;;;;;5084142;28;20036;-85
2022/04/27 09:11:23;;;;;;;8.38;3.10;;;11.00;99.90;;;;;;5101148;28;20050;-85
2022/04/27 09:13:55;;;;;;;9.10;2.65;;;11.20;99.90;;;;;;5083764;28;20134;-84
2022/04/27 09:16:26;;;;;;;7.78;2.78;;;11.30;99.90;;;;;;5100231;28;20439;-85
2022/04/27 09:22:00;;;;;;;9.15;2.42;;;11.50;99.90;;;;;;5089845;28;20048;-83
2022/04/27 09:24:28;;;;;;;15.27;3.15;;;11.90;99.90;;;;;;5087968;28;20047;-83
2022/04/27 09:27:12;;;;;;;11.95;2.78;;;11.70;99.90;;;;;;5122005;28;20071;-84
2022/04/27 09:29:37;;;;;;;6.90;2.67;;;11.80;99.90;;;;;;5103426;28;20073;-83
2022/04/27 09:32:04;;;;;;;9.50;2.85;;;12.00;99.90;;;;;;5103179;28;20040;-83
2022/04/27 09:34:43;;;;;;;7.47;2.20;;;12.00;99.90;;;;;;5100369;28;20428;-83
2022/04/27 09:37:18;;;;;;;7.63;2.50;;;12.00;99.90;;;;;;5117696;28;20535;-84
2022/04/27 09:39:46;;;;;;;10.20;2.60;;;12.10;99.90;;;;;;5104331;28;20062;-83
2022/04/27 09:42:13;;;;;;;9.20;2.40;;;12.30;99.90;;;;;;5105689;28;20054;-84
2022/04/27 09:44:40;;;;;;;8.07;2.70;;;12.30;99.90;;;;;;5119777;28;20043;-84
2022/04/27 09:47:07;;;;;;;7.63;2.47;;;12.40;99.90;;;;;;5101647;28;20059;-83
2022/04/27 09:49:39;;;;;;;11.07;2.40;;;12.40;99.90;;;;;;5099865;28;20103;-83
2022/04/27 09:52:06;;;;;;;9.82;2.75;;;12.60;99.90;;;;;;5119689;28;20043;-83
2022/04/27 09:54:36;;;;;;;10.10;2.42;;;12.80;99.90;;;;;;5117874;28;20059;-83
2022/04/27 09:57:09;;;;;;;6.18;2.30;;;13.40;99.90;;;;;;5118000;28;20075;-84
2022/04/27 09:59:36;;;;;;;7.20;2.75;;;13.00;99.90;;;;;;5083753;28;20031;-83
2022/04/27 10:02:10;;;;;;;5.97;2.05;;;13.10;99.90;;;;;;5099596;28;20066;-84
2022/04/27 10:04:37;;;;;;;6.18;2.08;;;13.10;99.90;;;;;;5099979;28;20054;-84
2022/04/27 10:07:05;;;;;;;7.30;2.40;;;13.10;99.90;;;;;;5099589;28;20054;-85
2022/04/27 10:09:32;;;;;;;7.60;2.20;;;13.00;99.90;;;;;;5099446;28;20044;-84
2022/04/27 10:12:01;;;;;;;6.68;2.20;;;12.90;99.90;;;;;;5104008;22;20079;-84
2022/04/27 10:14:27;;;;;;;7.07;2.47;;;12.80;99.90;;;;;;5057236;28;20131;-83
2022/04/27 10:16:54;;;;;;;7.18;2.50;;;12.70;99.90;;;;;;5057277;28;20491;-84
2022/04/27 10:19:20;;;;;;;8.82;2.42;;;12.80;99.90;;;;;;5050517;23;146534;-85
2022/04/27 10:21:57;;;;;;;7.30;2.40;;;12.70;99.90;;;;;;5052448;28;20040;-85
2022/04/27 10:24:38;;;;;;;7.93;2.60;;;12.60;99.90;;;;;;5057047;28;20053;-85
2022/04/27 10:27:14;;;;;;;8.13;2.25;;;12.50;99.90;;;;;;5073990;28;20094;-84
2022/04/27 10:29:40;;;;;;;7.03;2.15;;;12.40;99.90;;;;;;5057202;28;20128;-85
2022/04/27 10:32:06;;;;;;;7.18;2.38;;;12.50;99.90;;;;;;5093540;22;20135;-85
2022/04/27 10:34:33;;;;;;;9.73;2.50;;;12.50;99.90;;;;;;5081463;28;20461;-85
2022/04/27 10:37:01;;;;;;;6.50;2.67;;;12.90;99.90;;;;;;5084556;22;20106;-85
2022/04/27 10:39:29;;;;;;;9.52;2.58;;;12.30;99.90;;;;;;5091220;22;20056;-85
2022/04/27 10:42:05;;;;;;;8.30;2.50;;;12.40;99.90;;;;;;5098364;22;20386;-84
2022/04/27 10:44:55;;;;;;;6.50;2.22;;;12.30;99.90;;;;;;5080249;28;20475;-85
2022/04/27 10:47:22;;;;;;;6.60;2.30;;;12.30;99.90;;;;;;5088462;22;20064;-86
2022/04/27 10:50:09;;;;;;;7.15;2.38;;;12.40;99.90;;;;;;5059570;22;20420;-84
2022/04/27 10:52:51;;;;;;;9.60;2.70;;;12.50;99.90;;;;;;5043873;28;20051;-83
2022/04/27 10:55:37;;;;;;;8.45;2.63;;;12.70;99.90;;;;;;5078041;28;20047;-84
2022/04/27 10:58:31;;;;;;;7.13;2.50;;;12.60;99.90;;;;;;5040410;28;20126;-84
2022/04/27 11:01:03;;;;;;;6.40;2.00;;;12.60;99.90;;;;;;5040426;28;20044;-84
2022/04/27 11:03:36;;;;;;;7.63;2.10;;;12.70;99.90;;;;;;5041014;28;20500;-84
2022/04/27 11:06:04;;;;;;;5.25;2.10;;;12.80;99.90;;;;;;5040679;28;20052;-83
2022/04/27 11:08:35;;;;;;;7.43;2.53;;;12.80;99.90;;;;;;5057020;28;20048;-85
2022/04/27 11:11:06;;;;;;;5.43;2.60;;;12.80;99.90;;;;;;5056131;28;20036;-85
2022/04/27 11:13:37;;;;;;;9.55;2.20;;;12.80;99.90;;;;;;5039433;28;20045;-84
2022/04/27 11:16:10;;;;;;;9.50;2.22;;;12.70;99.90;;;;;;5056937;28;20110;-83
2022/04/27 11:18:57;;;;;;;6.05;2.20;;;12.50;99.90;;;;;;5040202;28;20373;-83
2022/04/27 11:21:30;;;;;;;6.75;2.55;;;12.50;99.90;;;;;;5081399;22;20471;-84
2022/04/27 11:26:21;;;;;;;7.20;2.05;;;12.40;99.90;;;;;;5110316;22;20138;-84
2022/04/27 11:28:47;;;;;;;7.35;2.53;;;12.40;99.90;;;;;;5080258;28;20044;-85
2022/04/27 11:31:15;;;;;;;6.25;2.55;;;12.30;99.90;;;;;;5086987;22;20092;-86
2022/04/27 11:33:41;;;;;;;9.50;3.00;;;12.70;99.90;;;;;;5079441;28;20486;-84
2022/04/27 11:36:19;;;;;;;8.50;2.97;;;12.60;99.90;;;;;;5103922;22;20131;-86
2022/04/27 11:38:45;;;;;;;8.27;2.28;;;12.20;99.90;;;;;;5037370;23;20099;-85
2022/04/27 11:41:15;;;;;;;5.70;2.17;;;12.20;99.90;;;;;;5039246;28;20507;-85
2022/04/27 11:43:42;;;;;;;6.88;2.47;;;12.30;99.90;;;;;;5039462;28;20044;-84
2022/04/27 11:46:09;;;;;;;6.78;2.35;;;12.30;99.90;;;;;;5039087;28;20045;-84
2022/04/27 11:48:35;;;;;;;7.47;2.20;;;12.80;99.90;;;;;;5057318;22;20102;-84
2022/04/27 11:51:01;;;;;;;8.13;2.63;;;12.50;99.90;;;;;;5052349;22;20045;-84
2022/04/27 11:53:28;;;;;;;7.35;2.58;;;12.50;99.90;;;;;;5056224;28;20091;-84
2022/04/27 11:55:54;;;;;;;10.75;2.50;;;12.60;99.90;;;;;;5056056;22;20048;-84
2022/04/27 11:58:22;;;;;;;9.85;3.10;;;12.40;99.90;;;;;;5020333;28;20141;-84
2022/04/27 12:00:49;;;;;;;10.30;2.60;;;12.30;99.90;;;;;;5039200;28;20447;-84
2022/04/27 12:03:15;;;;;;;8.05;2.22;;;12.40;99.90;;;;;;5032191;28;20084;-84
2022/04/27 12:05:41;;;;;;;8.10;2.25;;;12.40;99.90;;;;;;5057267;22;20040;-84
2022/04/27 12:08:11;;;;;;;10.68;2.45;;;12.40;99.90;;;;;;5051889;28;20052;-84
2022/04/27 12:10:42;;;;;;;9.38;2.38;;;12.40;99.90;;;;;;5044285;28;20506;-84
2022/04/27 12:13:09;;;;;;;5.82;2.33;;;13.00;99.90;;;;;;5044613;28;20102;-84
2022/04/27 12:15:36;;;;;;;7.60;2.50;;;13.10;99.90;;;;;;5045160;28;20098;-84
2022/04/27 12:18:03;;;;;;;9.68;2.67;;;12.40;99.90;;;;;;5060326;28;20442;-84
2022/04/27 12:20:39;;;;;;;9.85;2.17;;;12.50;99.90;;;;;;5060406;28;20046;-84
2022/04/27 12:23:09;;;;;;;7.40;2.13;;;12.60;99.90;;;;;;5077599;28;20056;-84
2022/04/27 12:25:37;;;;;;;8.32;2.33;;;12.70;99.90;;;;;;5059943;28;20052;-84
2022/04/27 12:28:04;;;;;;;10.93;2.63;;;12.70;99.90;;;;;;5043546;28;20048;-84
2022/04/27 12:30:30;;;;;;;5.30;2.08;;;12.80;99.90;;;;;;5060580;28;20036;-84
2022/04/27 12:32:57;;;;;;;7.57;2.45;;;12.80;99.90;;;;;;5043982;28;20049;-84
2022/04/27 12:38:17;;;;;;;8.63;2.70;;;12.70;99.90;;;;;;5077578;28;20052;-84
2022/04/27 12:40:42;;;;;;;9.88;2.55;;;13.20;99.90;;;;;;5042868;28;20123;-84
2022/04/27 12:43:11;;;;;;;6.55;2.30;;;12.60;99.90;;;;;;5060500;28;20119;-84
2022/04/27 12:45:37;;;;;;;8.55;2.58;;;12.70;99.90;;;;;;5042705;28;20052;-84
2022/04/27 12:48:04;;;;;;;8.27;2.55;;;12.70;99.90;;;;;;5077045;28;20383;-84
2022/04/27 12:50:32;;;;;;;8.10;2.40;;;12.60;99.90;;;;;;5044930;28;20040;-84
2022/04/27 12:53:09;;;;;;;6.97;2.40;;;12.70;99.90;;;;;;5065051;28;20037;-83
2022/04/27 12:55:36;;;;;;;6.80;2.28;;;12.70;99.90;;;;;;5066142;28;20040;-84
2022/04/27 12:58:02;;;;;;;6.43;2.30;;;12.70;99.90;;;;;;5061951;28;20383;-83
2022/04/27 13:00:45;;;;;;;9.23;2.80;;;12.70;99.90;;;;;;5062494;28;20044;-83
2022/04/27 13:03:12;;;;;;;9.45;2.08;;;12.80;99.90;;;;;;5063364;28;20093;-83
2022/04/27 13:05:42;;;;;;;7.38;2.30;;;12.90;99.90;;;;;;5080811;28;20060;-84
2022/04/27 13:08:09;;;;;;;10.23;2.38;;;12.90;99.90;;;;;;5080810;28;20057;-84
2022/04/27 13:13:21;;;;;;;8.55;2.30;;;12.90;99.90;;;;;;5062587;28;20052;-84
2022/04/27 13:15:49;;;;;;;8.65;2.40;;;13.00;99.90;;;;;;5062469;28;20055;-83
2022/04/27 13:18:16;;;;;;;8.70;2.55;;;13.10;99.90;;;;;;5082961;28;20045;-84
2022/04/27 13:20:42;;;;;;;10.30;2.70;;;12.90;99.90;;;;;;5047085;28;20036;-83
2022/04/27 13:23:11;;;;;;;6.85;2.30;;;12.90;99.90;;;;;;5079736;28;20079;-84